Time;durP1;ratioP1;P1;durP2;ratioP2;P2;SDS_P1;SDS_P2;PMS_P1;PMS_P2;Temp;Humidity;BMP_temperature;BMP_pressure;BME280_temperature;BME280_humidity;BME280_pressure;Samples;Min_cycle;Max_cycle;Signal;HPM_P1;HPM_P2
2021/11/06 00:01:12;;;;;;;12.85;7.65;;;9.40;99.90;;;;;;5033904;28;20094;-78
2021/11/06 00:03:37;;;;;;;13.68;7.15;;;9.40;99.90;;;;;;5034506;28;20034;-78
2021/11/06 00:06:03;;;;;;;16.70;7.30;;;9.40;99.90;;;;;;5024851;28;20037;-79
2021/11/06 00:08:28;;;;;;;15.77;6.97;;;9.40;99.90;;;;;;5026561;28;20029;-79
2021/11/06 00:10:54;;;;;;;16.88;7.65;;;9.40;99.90;;;;;;5026005;28;20397;-79
2021/11/06 00:13:19;;;;;;;14.35;6.78;;;9.40;99.90;;;;;;5034742;28;20390;-79
2021/11/06 00:15:46;;;;;;;13.30;6.97;;;9.30;99.90;;;;;;5031160;28;20060;-79
2021/11/06 00:18:11;;;;;;;12.73;6.55;;;9.30;99.90;;;;;;5033955;28;20110;-79
2021/11/06 00:20:37;;;;;;;12.65;7.00;;;9.40;99.90;;;;;;5025057;28;20072;-79
2021/11/06 00:23:02;;;;;;;10.27;6.55;;;9.30;99.90;;;;;;5025771;28;20048;-79
2021/11/06 00:25:28;;;;;;;11.00;6.68;;;9.30;99.90;;;;;;5032839;28;20489;-79
2021/11/06 00:27:54;;;;;;;12.38;6.50;;;9.30;99.90;;;;;;5029654;28;20094;-79
2021/11/06 00:30:19;;;;;;;12.30;6.55;;;9.30;99.90;;;;;;5018657;28;20037;-79
2021/11/06 00:32:46;;;;;;;16.67;6.75;;;9.30;99.90;;;;;;5026571;28;20037;-79
2021/11/06 00:35:13;;;;;;;10.63;6.07;;;9.30;99.90;;;;;;5036984;28;20036;-79
2021/11/06 00:37:40;;;;;;;11.90;6.72;;;9.30;99.90;;;;;;5025278;28;20478;-79
2021/11/06 00:40:07;;;;;;;10.93;6.93;;;9.30;99.90;;;;;;5039990;28;20036;-79
2021/11/06 00:42:33;;;;;;;10.93;6.78;;;9.20;99.90;;;;;;5022615;28;21937;-79
2021/11/06 00:44:59;;;;;;;11.40;6.32;;;9.30;99.90;;;;;;5025435;28;20552;-79
2021/11/06 00:47:24;;;;;;;11.98;5.97;;;9.30;99.90;;;;;;5027928;28;20034;-79
2021/11/06 00:49:50;;;;;;;10.27;6.05;;;9.30;99.90;;;;;;5034645;28;20052;-79
2021/11/06 00:52:16;;;;;;;13.95;6.35;;;9.30;99.90;;;;;;5021189;28;20089;-79
2021/11/06 00:54:41;;;;;;;12.15;6.55;;;9.30;99.90;;;;;;5029546;28;20382;-79
2021/11/06 00:57:07;;;;;;;10.07;6.38;;;9.30;99.90;;;;;;5019203;28;20033;-79
2021/11/06 00:59:33;;;;;;;14.10;7.10;;;9.30;99.90;;;;;;5022491;28;20028;-79
2021/11/06 01:01:58;;;;;;;11.82;6.72;;;9.20;99.90;;;;;;5019158;28;20488;-79
2021/11/06 01:04:24;;;;;;;11.20;6.00;;;9.20;99.90;;;;;;5026052;28;20478;-80
2021/11/06 01:06:49;;;;;;;12.07;6.65;;;9.20;99.90;;;;;;5018074;28;20490;-78
2021/11/06 01:09:15;;;;;;;11.30;7.55;;;9.20;99.90;;;;;;5019221;28;20117;-79
2021/11/06 01:11:40;;;;;;;11.52;6.13;;;9.20;99.90;;;;;;5027634;28;20032;-79
2021/11/06 01:14:06;;;;;;;13.57;6.97;;;9.10;99.90;;;;;;5035094;28;20389;-79
2021/11/06 01:16:32;;;;;;;9.98;6.45;;;9.00;99.90;;;;;;5027684;28;20600;-79
2021/11/06 01:18:58;;;;;;;11.38;6.22;;;9.10;99.90;;;;;;5029379;28;20116;-79
2021/11/06 01:21:23;;;;;;;8.40;5.50;;;9.10;99.90;;;;;;5024713;28;20042;-79
2021/11/06 01:23:49;;;;;;;16.77;6.13;;;9.10;99.90;;;;;;5036213;28;20110;-79
2021/11/06 01:26:15;;;;;;;14.35;6.93;;;9.10;99.90;;;;;;5025131;28;20052;-79
2021/11/06 01:28:40;;;;;;;12.57;6.35;;;9.10;99.90;;;;;;5035879;28;20021;-79
2021/11/06 01:31:06;;;;;;;12.05;6.38;;;9.00;99.90;;;;;;5017142;28;20033;-79
2021/11/06 01:33:31;;;;;;;13.35;6.22;;;9.10;99.90;;;;;;5019540;28;20031;-79
2021/11/06 01:35:57;;;;;;;13.05;6.80;;;9.00;99.90;;;;;;5024841;28;20037;-79
2021/11/06 01:38:22;;;;;;;9.38;6.22;;;9.00;99.90;;;;;;5032476;28;20071;-79
2021/11/06 01:40:48;;;;;;;10.95;6.88;;;9.00;99.90;;;;;;5038775;28;20041;-79
2021/11/06 01:43:14;;;;;;;16.10;6.65;;;9.00;99.90;;;;;;5045346;28;20087;-79
2021/11/06 01:45:40;;;;;;;10.45;5.95;;;9.00;99.90;;;;;;5032155;28;20137;-79
2021/11/06 01:48:06;;;;;;;9.35;6.30;;;9.00;99.90;;;;;;5019744;28;20545;-79
2021/11/06 01:50:32;;;;;;;11.05;6.80;;;9.00;99.90;;;;;;5029044;28;20197;-79
2021/11/06 01:52:58;;;;;;;13.90;5.57;;;9.00;99.90;;;;;;5033514;28;20037;-80
2021/11/06 01:55:23;;;;;;;10.93;5.72;;;9.00;99.90;;;;;;5033607;28;20088;-79
2021/11/06 01:57:49;;;;;;;11.52;5.80;;;8.90;99.90;;;;;;5023217;28;20045;-79
2021/11/06 02:00:22;;;;;;;9.90;6.38;;;8.90;99.90;;;;;;5033110;28;20499;-79
2021/11/06 02:02:48;;;;;;;11.27;6.70;;;8.80;99.90;;;;;;5030604;28;20501;-80
2021/11/06 02:05:14;;;;;;;11.43;6.30;;;8.80;99.90;;;;;;5021946;28;20104;-79
2021/11/06 02:07:41;;;;;;;12.93;6.95;;;8.80;99.90;;;;;;5012913;28;20038;-79
2021/11/06 02:10:09;;;;;;;12.93;7.50;;;8.70;99.90;;;;;;5024379;28;20038;-79
2021/11/06 02:12:35;;;;;;;11.35;6.47;;;8.70;99.90;;;;;;5035097;28;20117;-79
2021/11/06 02:15:01;;;;;;;14.57;6.88;;;8.60;99.90;;;;;;5024504;28;20104;-79
2021/11/06 02:17:26;;;;;;;12.73;6.15;;;8.50;99.90;;;;;;5033293;28;20033;-79
2021/11/06 02:19:52;;;;;;;16.38;7.82;;;8.50;99.90;;;;;;5026249;28;20124;-79
2021/11/06 02:22:17;;;;;;;12.10;6.93;;;8.50;99.90;;;;;;5025537;28;20042;-79
2021/11/06 02:24:43;;;;;;;11.45;7.25;;;8.50;99.90;;;;;;5028628;28;20036;-79
2021/11/06 02:27:08;;;;;;;14.18;6.50;;;8.40;99.90;;;;;;5018263;28;20490;-78
2021/11/06 02:29:34;;;;;;;12.50;7.40;;;8.40;99.90;;;;;;5021042;28;20029;-78
2021/11/06 02:32:00;;;;;;;12.52;6.88;;;8.40;99.90;;;;;;5022226;28;20065;-77
2021/11/06 02:34:26;;;;;;;11.70;7.05;;;8.40;99.90;;;;;;5017308;28;20471;-77
2021/11/06 02:36:52;;;;;;;12.07;7.07;;;8.30;99.90;;;;;;5021600;28;20036;-77
2021/11/06 02:39:17;;;;;;;14.95;7.80;;;8.40;99.90;;;;;;5017465;28;20025;-78
2021/11/06 02:41:43;;;;;;;15.60;7.38;;;8.30;99.90;;;;;;5017444;28;20040;-78
2021/11/06 02:44:10;;;;;;;12.30;7.22;;;8.20;99.90;;;;;;5010615;28;20034;-77
2021/11/06 02:46:38;;;;;;;13.23;7.35;;;8.20;99.90;;;;;;5023505;28;20049;-78
2021/11/06 02:49:08;;;;;;;17.13;8.25;;;8.20;99.90;;;;;;5036654;28;20495;-78
2021/11/06 02:51:34;;;;;;;17.42;7.65;;;8.20;99.90;;;;;;5035861;28;20044;-77
2021/11/06 02:54:00;;;;;;;13.60;7.10;;;8.20;99.90;;;;;;5022046;28;20026;-78
2021/11/06 02:56:27;;;;;;;12.93;6.68;;;8.20;99.90;;;;;;5021247;28;20044;-77
2021/11/06 02:58:54;;;;;;;10.38;6.25;;;8.20;99.90;;;;;;5019489;28;20030;-77
2021/11/06 03:01:21;;;;;;;14.77;7.53;;;8.30;99.90;;;;;;5026272;28;20661;-78
2021/11/06 03:03:47;;;;;;;11.98;6.60;;;8.20;99.90;;;;;;5026907;28;20036;-77
2021/11/06 03:06:12;;;;;;;14.15;7.18;;;8.20;99.90;;;;;;5014844;28;20038;-77
2021/11/06 03:08:38;;;;;;;11.98;6.55;;;8.20;99.90;;;;;;5019641;28;20037;-78
2021/11/06 03:11:04;;;;;;;10.38;6.22;;;8.20;99.90;;;;;;5024669;28;20044;-78
2021/11/06 03:13:31;;;;;;;13.57;6.85;;;8.20;99.90;;;;;;5042057;28;20083;-77
2021/11/06 03:15:56;;;;;;;14.60;6.32;;;8.20;99.90;;;;;;5028587;28;20120;-78
2021/11/06 03:18:22;;;;;;;12.40;6.40;;;8.30;99.90;;;;;;5028562;28;20104;-77
2021/11/06 03:20:47;;;;;;;14.02;7.50;;;8.30;99.90;;;;;;5028313;28;20440;-78
2021/11/06 03:23:13;;;;;;;15.95;8.00;;;8.30;99.90;;;;;;5036009;28;20037;-78
2021/11/06 03:25:38;;;;;;;14.80;7.85;;;8.30;99.90;;;;;;5032496;28;20449;-77
2021/11/06 03:28:04;;;;;;;10.00;6.47;;;8.30;99.90;;;;;;5028067;28;20049;-77
2021/11/06 03:30:29;;;;;;;12.38;7.32;;;8.30;99.90;;;;;;5019539;28;20404;-77
2021/11/06 03:32:55;;;;;;;14.25;7.70;;;8.30;99.90;;;;;;5035332;28;20393;-78
2021/11/06 03:35:22;;;;;;;13.15;7.15;;;8.30;99.90;;;;;;5025789;28;20029;-77
2021/11/06 03:37:48;;;;;;;14.65;7.50;;;8.30;99.90;;;;;;5011322;28;20042;-78
2021/11/06 03:40:14;;;;;;;17.45;7.68;;;8.30;99.90;;;;;;5020596;28;20359;-78
2021/11/06 03:42:41;;;;;;;11.95;6.53;;;8.30;99.90;;;;;;5035462;28;20112;-78
2021/11/06 03:45:08;;;;;;;14.00;6.78;;;8.40;99.90;;;;;;5022520;28;20022;-78
2021/11/06 03:47:34;;;;;;;13.27;7.13;;;8.40;99.90;;;;;;5020485;28;20112;-77
2021/11/06 03:50:00;;;;;;;10.60;6.55;;;8.50;99.90;;;;;;5019700;28;20105;-77
2021/11/06 03:52:25;;;;;;;11.38;7.28;;;8.60;99.90;;;;;;5024601;28;20432;-78
2021/11/06 03:54:51;;;;;;;12.10;8.07;;;8.70;99.90;;;;;;5028471;28;20033;-78
2021/11/06 03:57:17;;;;;;;15.65;7.60;;;8.70;99.90;;;;;;5013798;28;20079;-78
2021/11/06 03:59:42;;;;;;;12.40;7.85;;;8.70;99.90;;;;;;5019443;28;20388;-78
2021/11/06 04:02:07;;;;;;;12.85;7.63;;;8.70;99.90;;;;;;5025771;28;20045;-77
2021/11/06 04:04:33;;;;;;;10.93;6.72;;;8.70;99.90;;;;;;5026185;28;20060;-78
2021/11/06 04:06:58;;;;;;;11.48;5.90;;;8.70;99.90;;;;;;5030969;28;20044;-78
2021/11/06 04:09:24;;;;;;;10.02;6.63;;;8.70;99.90;;;;;;5028201;28;20129;-78
2021/11/06 04:11:50;;;;;;;13.10;7.43;;;8.80;99.90;;;;;;5019959;28;20037;-78
2021/11/06 04:14:16;;;;;;;9.25;6.45;;;8.80;99.90;;;;;;5042942;28;20059;-79
2021/11/06 04:16:41;;;;;;;9.95;6.82;;;8.80;99.90;;;;;;5036123;28;20615;-77
2021/11/06 04:19:07;;;;;;;14.55;7.18;;;8.90;99.90;;;;;;5032451;28;20116;-77
2021/11/06 04:21:33;;;;;;;10.90;6.82;;;8.90;99.90;;;;;;5026325;28;20037;-79
2021/11/06 04:23:59;;;;;;;8.27;6.13;;;8.90;99.90;;;;;;5036498;28;20116;-81
2021/11/06 04:26:24;;;;;;;10.63;6.18;;;9.00;99.90;;;;;;5021071;28;20135;-79
2021/11/06 04:28:49;;;;;;;8.90;6.53;;;9.00;99.90;;;;;;5018702;28;20703;-77
2021/11/06 04:31:15;;;;;;;16.42;6.95;;;9.00;99.90;;;;;;5027575;28;20037;-77
2021/11/06 04:33:41;;;;;;;11.98;6.90;;;9.00;99.90;;;;;;5030919;28;20030;-79
2021/11/06 04:36:09;;;;;;;10.13;7.03;;;9.00;99.90;;;;;;5021395;28;20038;-77
2021/11/06 04:38:35;;;;;;;13.30;7.28;;;9.00;99.90;;;;;;5028673;28;20038;-79
2021/11/06 04:41:01;;;;;;;10.77;6.43;;;9.00;99.90;;;;;;5018545;28;20111;-79
2021/11/06 04:43:27;;;;;;;11.70;6.45;;;9.00;99.90;;;;;;5026197;28;20064;-79
2021/11/06 04:45:52;;;;;;;9.65;7.00;;;9.00;99.90;;;;;;5020999;28;20037;-77
2021/11/06 04:48:18;;;;;;;12.20;7.03;;;8.90;99.90;;;;;;5025188;28;20513;-79
2021/11/06 04:50:43;;;;;;;12.18;6.82;;;8.80;99.90;;;;;;5016378;28;20083;-79
2021/11/06 04:53:09;;;;;;;11.90;7.03;;;8.80;99.90;;;;;;5027634;28;21528;-79
2021/11/06 04:55:34;;;;;;;9.43;5.95;;;8.90;99.90;;;;;;5015657;28;20056;-79
2021/11/06 04:58:00;;;;;;;12.10;6.97;;;8.80;99.90;;;;;;5028742;28;20110;-78
2021/11/06 05:00:25;;;;;;;11.15;7.22;;;8.80;99.90;;;;;;5022790;28;20037;-77
2021/11/06 05:02:51;;;;;;;14.32;7.13;;;8.80;99.90;;;;;;5034116;28;20056;-77
2021/11/06 05:05:17;;;;;;;13.90;6.75;;;8.80;99.90;;;;;;5028088;28;20028;-77
2021/11/06 05:07:43;;;;;;;15.18;7.68;;;8.80;99.90;;;;;;5011022;28;20020;-78
2021/11/06 05:10:09;;;;;;;10.82;6.72;;;8.80;99.90;;;;;;5016250;28;20033;-77
2021/11/06 05:12:35;;;;;;;13.20;6.00;;;8.90;99.90;;;;;;5025203;28;20072;-78
2021/11/06 05:15:02;;;;;;;10.40;6.30;;;8.90;99.90;;;;;;5030087;28;20032;-77
2021/11/06 05:17:28;;;;;;;10.02;6.43;;;8.90;99.90;;;;;;5014396;28;20034;-77
2021/11/06 05:19:53;;;;;;;15.77;7.75;;;9.00;99.90;;;;;;5016440;28;20043;-78
2021/11/06 05:22:20;;;;;;;13.00;7.47;;;9.00;99.90;;;;;;5026958;28;20033;-77
2021/11/06 05:24:45;;;;;;;12.45;6.72;;;9.00;99.90;;;;;;5029413;28;20044;-79
2021/11/06 05:27:11;;;;;;;10.93;7.15;;;9.00;99.90;;;;;;5024643;28;20037;-78
2021/11/06 05:29:36;;;;;;;12.43;7.90;;;9.10;99.90;;;;;;5027803;28;20041;-79
2021/11/06 05:32:02;;;;;;;12.60;8.07;;;9.00;99.90;;;;;;5028953;28;20025;-79
2021/11/06 05:34:28;;;;;;;11.75;7.55;;;9.00;99.90;;;;;;5025545;28;20410;-78
2021/11/06 05:36:53;;;;;;;14.90;7.60;;;9.00;99.90;;;;;;5019184;28;20041;-78
2021/11/06 05:39:19;;;;;;;13.20;8.48;;;9.10;99.90;;;;;;5025222;28;20584;-78
2021/11/06 05:41:45;;;;;;;10.63;7.57;;;9.10;99.90;;;;;;5023430;28;20030;-78
2021/11/06 05:44:10;;;;;;;15.18;8.88;;;9.10;99.90;;;;;;5022081;28;20108;-78
2021/11/06 05:46:36;;;;;;;10.45;7.80;;;9.10;99.90;;;;;;5030275;28;20118;-78
2021/11/06 05:49:01;;;;;;;10.68;7.15;;;9.00;99.90;;;;;;5031407;28;20048;-77
2021/11/06 05:51:27;;;;;;;13.50;8.13;;;9.10;99.90;;;;;;5028770;28;20055;-77
2021/11/06 05:53:52;;;;;;;14.65;9.02;;;9.10;99.90;;;;;;5027699;28;20038;-77
2021/11/06 05:56:19;;;;;;;15.82;8.15;;;9.10;99.90;;;;;;5029121;28;20402;-77
2021/11/06 05:58:45;;;;;;;14.55;7.85;;;9.10;99.90;;;;;;5028796;28;20508;-76
2021/11/06 06:01:11;;;;;;;10.55;7.20;;;9.10;99.90;;;;;;5036525;28;20051;-77
2021/11/06 06:03:37;;;;;;;14.80;8.20;;;9.10;99.90;;;;;;5029159;28;20029;-78
2021/11/06 06:06:03;;;;;;;13.70;8.45;;;9.10;99.90;;;;;;5021795;28;20046;-79
2021/11/06 06:08:28;;;;;;;15.25;9.45;;;9.20;99.90;;;;;;5027991;28;20057;-77
2021/11/06 06:10:54;;;;;;;11.25;7.65;;;9.20;99.90;;;;;;5026411;28;20064;-77
2021/11/06 06:13:19;;;;;;;16.77;8.77;;;9.20;99.90;;;;;;5032386;28;20401;-77
2021/11/06 06:15:45;;;;;;;12.50;9.02;;;9.20;99.90;;;;;;5029127;28;20037;-77
2021/11/06 06:18:10;;;;;;;11.32;8.25;;;9.20;99.90;;;;;;5024725;28;20071;-77
2021/11/06 06:20:36;;;;;;;16.40;8.77;;;9.20;99.90;;;;;;5026675;28;20382;-77
2021/11/06 06:23:01;;;;;;;14.48;8.70;;;9.20;99.90;;;;;;5027094;28;20037;-77
2021/11/06 06:25:27;;;;;;;12.55;9.07;;;9.20;99.90;;;;;;5025744;28;20037;-77
2021/11/06 06:27:53;;;;;;;11.35;8.27;;;9.10;99.90;;;;;;5025695;28;20021;-77
2021/11/06 06:30:20;;;;;;;14.43;8.20;;;9.10;99.90;;;;;;5026605;28;20390;-78
2021/11/06 06:32:46;;;;;;;18.02;8.50;;;9.10;99.90;;;;;;5028437;28;20441;-78
2021/11/06 06:35:13;;;;;;;13.65;9.15;;;9.10;99.90;;;;;;5018888;28;20035;-79
2021/11/06 06:37:40;;;;;;;15.30;9.95;;;9.10;99.90;;;;;;5013273;28;20025;-78
2021/11/06 06:40:07;;;;;;;11.80;8.60;;;9.10;99.90;;;;;;5022587;28;20120;-79
2021/11/06 06:42:33;;;;;;;14.75;9.50;;;9.10;99.90;;;;;;5024897;28;20084;-79
2021/11/06 06:44:59;;;;;;;12.80;9.05;;;9.10;99.90;;;;;;5028968;28;20037;-79
2021/11/06 06:47:24;;;;;;;12.32;8.90;;;9.10;99.90;;;;;;5027465;28;20405;-77
2021/11/06 06:49:50;;;;;;;13.35;9.05;;;9.10;99.90;;;;;;5025700;28;20244;-78
2021/11/06 06:52:17;;;;;;;15.30;9.82;;;9.10;99.90;;;;;;5024808;28;20075;-78
2021/11/06 06:54:43;;;;;;;14.25;9.35;;;9.20;99.90;;;;;;5030229;28;20025;-78
2021/11/06 06:57:08;;;;;;;15.02;8.90;;;9.10;99.90;;;;;;5023182;28;20033;-79
2021/11/06 06:59:35;;;;;;;13.38;9.68;;;9.20;99.90;;;;;;5021530;28;20391;-79
2021/11/06 07:02:05;;;;;;;17.08;8.90;;;9.20;99.90;;;;;;5020423;28;20686;-79
2021/11/06 07:04:31;;;;;;;15.05;10.32;;;9.20;99.90;;;;;;5021252;28;20055;-79
2021/11/06 07:06:58;;;;;;;16.80;9.68;;;9.20;99.90;;;;;;5026290;28;20052;-80
2021/11/06 07:09:24;;;;;;;16.00;9.52;;;9.30;99.90;;;;;;5022703;28;20068;-79
2021/11/06 07:11:50;;;;;;;17.10;9.52;;;9.30;99.90;;;;;;5021052;28;20524;-79
2021/11/06 07:14:16;;;;;;;13.70;9.23;;;9.30;99.90;;;;;;5024435;28;20474;-77
2021/11/06 07:16:45;;;;;;;13.90;8.75;;;9.30;99.90;;;;;;5021711;28;20061;-77
2021/11/06 07:19:11;;;;;;;16.02;9.38;;;9.40;99.90;;;;;;5022086;28;20034;-77
2021/11/06 07:21:36;;;;;;;13.18;7.90;;;9.30;99.90;;;;;;5018284;28;20033;-78
2021/11/06 07:24:02;;;;;;;11.70;8.30;;;9.40;99.90;;;;;;5019298;28;20116;-77
2021/11/06 07:26:28;;;;;;;13.50;9.23;;;9.40;99.90;;;;;;5028565;28;20108;-77
2021/11/06 07:28:53;;;;;;;11.60;8.27;;;9.40;99.90;;;;;;5010453;28;20565;-78
2021/11/06 07:31:19;;;;;;;15.73;9.85;;;9.40;99.80;;;;;;5021857;28;20104;-77
2021/11/06 07:33:48;;;;;;;12.25;8.13;;;9.30;99.90;;;;;;5027380;28;20029;-77
2021/11/06 07:36:13;;;;;;;14.00;9.15;;;9.40;99.90;;;;;;5030249;28;20351;-79
2021/11/06 07:38:39;;;;;;;13.23;8.93;;;9.40;99.90;;;;;;5022823;28;20030;-78
2021/11/06 07:41:04;;;;;;;18.50;9.02;;;9.40;99.90;;;;;;5013546;28;20026;-79
2021/11/06 07:43:30;;;;;;;14.50;8.27;;;9.50;99.90;;;;;;5021247;28;20029;-78
2021/11/06 07:45:55;;;;;;;14.95;9.43;;;9.50;99.90;;;;;;5021164;28;20070;-79
2021/11/06 07:48:21;;;;;;;13.38;8.50;;;9.50;99.80;;;;;;5028369;28;20852;-79
2021/11/06 07:50:47;;;;;;;11.57;8.65;;;9.60;99.70;;;;;;5047602;28;20037;-78
2021/11/06 07:53:12;;;;;;;12.10;8.40;;;9.70;99.30;;;;;;5050917;28;20381;-78
2021/11/06 07:55:38;;;;;;;13.38;8.30;;;9.80;99.20;;;;;;5023951;28;20388;-77
2021/11/06 07:58:04;;;;;;;14.02;7.75;;;9.80;98.80;;;;;;5023972;28;20072;-78
2021/11/06 08:00:30;;;;;;;12.40;8.43;;;9.80;99.20;;;;;;5027819;28;20237;-77
2021/11/06 08:02:55;;;;;;;17.25;11.70;;;9.90;99.10;;;;;;5024696;28;20033;-79
2021/11/06 08:05:22;;;;;;;11.32;8.35;;;9.90;98.90;;;;;;5026186;28;20104;-79
2021/11/06 08:07:48;;;;;;;14.25;8.65;;;9.90;98.90;;;;;;5023531;28;20064;-79
2021/11/06 08:10:14;;;;;;;12.00;8.13;;;9.80;99.10;;;;;;5023200;28;20077;-79
2021/11/06 08:12:41;;;;;;;11.77;7.65;;;9.80;99.10;;;;;;5027659;28;20025;-79
2021/11/06 08:15:11;;;;;;;13.40;8.38;;;9.80;99.10;;;;;;5028534;28;20363;-79
2021/11/06 08:17:36;;;;;;;13.60;8.32;;;9.90;99.10;;;;;;5038323;28;20119;-79
2021/11/06 08:20:03;;;;;;;12.68;7.10;;;9.90;98.80;;;;;;5013578;28;20164;-80
2021/11/06 08:22:28;;;;;;;11.32;7.68;;;9.90;98.60;;;;;;5015346;28;20053;-78
2021/11/06 08:24:54;;;;;;;14.13;8.38;;;9.90;98.80;;;;;;5014427;28;20391;-79
2021/11/06 08:27:21;;;;;;;13.05;7.70;;;9.90;98.70;;;;;;5023520;28;20040;-79
2021/11/06 08:29:46;;;;;;;13.48;7.63;;;9.90;98.70;;;;;;5031213;28;20053;-79
2021/11/06 08:32:12;;;;;;;10.73;7.30;;;9.90;98.50;;;;;;5033341;28;20087;-78
2021/11/06 08:34:37;;;;;;;17.08;8.00;;;9.90;98.60;;;;;;5029873;28;20026;-79
2021/11/06 08:37:03;;;;;;;11.23;7.35;;;9.90;98.50;;;;;;5041877;28;20115;-79
2021/11/06 08:39:29;;;;;;;9.80;7.28;;;9.90;98.50;;;;;;5033073;28;20106;-78
2021/11/06 08:41:56;;;;;;;11.30;7.70;;;9.90;98.70;;;;;;5031624;28;20063;-78
2021/11/06 08:44:22;;;;;;;11.27;7.13;;;9.90;98.50;;;;;;5027722;28;20022;-78
2021/11/06 08:46:50;;;;;;;15.05;7.30;;;9.90;98.70;;;;;;5023559;28;20068;-78
2021/11/06 08:49:17;;;;;;;11.07;7.45;;;9.90;98.40;;;;;;5050721;28;20448;-79
2021/11/06 08:51:48;;;;;;;9.75;6.57;;;10.00;98.50;;;;;;5046701;28;20036;-79
2021/11/06 08:54:14;;;;;;;12.85;7.70;;;10.00;98.30;;;;;;5031845;28;20528;-79
2021/11/06 08:56:41;;;;;;;10.70;7.57;;;10.00;98.40;;;;;;5031475;28;20069;-78
2021/11/06 08:59:06;;;;;;;8.55;6.10;;;10.10;98.20;;;;;;5033573;28;20044;-79
2021/11/06 09:01:33;;;;;;;9.02;7.05;;;10.10;98.00;;;;;;5030963;28;20466;-79
2021/11/06 09:03:58;;;;;;;11.70;7.05;;;10.10;98.30;;;;;;5033781;28;20031;-78
2021/11/06 09:06:24;;;;;;;9.85;7.00;;;10.10;98.30;;;;;;5031246;28;20033;-78
2021/11/06 09:08:50;;;;;;;9.75;7.00;;;10.00;98.20;;;;;;5037348;28;20090;-78
2021/11/06 09:11:17;;;;;;;11.35;7.22;;;9.90;98.50;;;;;;5050847;28;20426;-79
2021/11/06 09:13:53;;;;;;;14.32;7.15;;;10.00;98.30;;;;;;5030965;28;20037;-79
2021/11/06 09:16:19;;;;;;;8.63;6.25;;;10.00;98.30;;;;;;5011865;28;20026;-78
2021/11/06 09:18:45;;;;;;;10.55;6.47;;;10.10;98.20;;;;;;5013358;28;20068;-77
2021/11/06 09:21:12;;;;;;;9.93;6.30;;;10.10;97.90;;;;;;5024421;28;20044;-77
2021/11/06 09:23:39;;;;;;;14.80;7.40;;;10.10;97.90;;;;;;5031379;28;20033;-77
2021/11/06 09:26:05;;;;;;;11.10;7.57;;;10.10;97.80;;;;;;5031627;28;20504;-79
2021/11/06 09:28:32;;;;;;;10.05;6.50;;;10.30;97.60;;;;;;5032993;28;20037;-79
2021/11/06 09:30:58;;;;;;;11.77;6.75;;;10.30;97.50;;;;;;5030597;28;20026;-79
2021/11/06 09:33:23;;;;;;;13.27;7.45;;;10.20;97.20;;;;;;5030811;28;20394;-80
2021/11/06 09:35:49;;;;;;;10.07;6.50;;;10.20;97.30;;;;;;5030506;28;20041;-80
2021/11/06 09:38:15;;;;;;;11.95;7.60;;;10.30;97.60;;;;;;5044264;28;20097;-79
2021/11/06 09:40:40;;;;;;;9.50;6.22;;;10.40;97.50;;;;;;5042036;28;20088;-79
2021/11/06 09:43:06;;;;;;;10.20;6.18;;;10.40;97.20;;;;;;5030432;28;20033;-79
2021/11/06 09:45:32;;;;;;;11.75;6.78;;;10.50;96.90;;;;;;5030409;28;20065;-79
2021/11/06 09:47:58;;;;;;;11.15;6.88;;;10.50;96.50;;;;;;5030908;28;20107;-79
2021/11/06 09:50:24;;;;;;;7.95;6.00;;;10.50;96.50;;;;;;5043575;28;20029;-79
2021/11/06 09:52:53;;;;;;;10.20;6.60;;;10.60;96.60;;;;;;5030183;28;20482;-79
2021/11/06 09:55:21;;;;;;;13.10;6.60;;;10.70;96.50;;;;;;5029836;28;20021;-79
2021/11/06 09:57:48;;;;;;;7.63;5.53;;;10.70;96.50;;;;;;5027484;28;20041;-79
2021/11/06 10:00:15;;;;;;;8.60;6.35;;;10.70;95.80;;;;;;5025470;28;20026;-80
2021/11/06 10:02:42;;;;;;;10.38;6.35;;;10.70;95.90;;;;;;5049553;28;20031;-79
2021/11/06 10:05:08;;;;;;;8.63;5.53;;;10.80;95.90;;;;;;5050134;28;20509;-79
2021/11/06 10:07:35;;;;;;;7.65;5.43;;;10.80;95.90;;;;;;5044941;28;20051;-78
2021/11/06 10:10:13;;;;;;;6.72;5.40;;;10.80;96.30;;;;;;5030935;28;20036;-79
2021/11/06 10:12:52;;;;;;;7.90;5.75;;;10.90;95.90;;;;;;5030228;28;20025;-80
2021/11/06 10:15:20;;;;;;;7.45;5.68;;;11.00;95.60;;;;;;5030576;28;20108;-79
2021/11/06 10:17:46;;;;;;;8.15;5.35;;;11.10;95.60;;;;;;5036461;28;20044;-79
2021/11/06 10:20:40;;;;;;;8.25;6.32;;;11.20;95.80;;;;;;5050231;28;20028;-79
2021/11/06 10:23:07;;;;;;;9.23;5.90;;;11.30;95.00;;;;;;5035508;28;20034;-79
2021/11/06 10:25:34;;;;;;;5.90;4.45;;;11.40;94.80;;;;;;5029679;28;20079;-80
2021/11/06 10:28:01;;;;;;;11.48;5.85;;;11.30;94.70;;;;;;5036287;28;20095;-79
2021/11/06 10:30:36;;;;;;;9.48;5.18;;;11.40;95.00;;;;;;5030364;28;20052;-79
2021/11/06 10:33:17;;;;;;;8.05;5.40;;;11.30;94.60;;;;;;5029310;28;20561;-80
2021/11/06 10:35:45;;;;;;;10.65;5.18;;;11.30;94.90;;;;;;5029707;28;20028;-79
2021/11/06 10:38:17;;;;;;;8.52;5.20;;;11.40;94.70;;;;;;5038388;28;20104;-79
2021/11/06 10:40:46;;;;;;;7.07;4.95;;;11.40;94.50;;;;;;5031768;28;20037;-80
2021/11/06 10:43:13;;;;;;;6.72;5.53;;;11.50;94.50;;;;;;5030274;28;20033;-79
2021/11/06 10:45:45;;;;;;;7.05;4.97;;;11.60;94.50;;;;;;5015421;28;20026;-79
2021/11/06 10:48:15;;;;;;;9.32;5.80;;;11.70;94.20;;;;;;5009703;28;20121;-80
2021/11/06 10:51:14;;;;;;;7.50;4.65;;;11.70;94.40;;;;;;5009389;28;20036;-79
2021/11/06 10:53:49;;;;;;;7.75;5.35;;;11.80;94.60;;;;;;5042584;28;20099;-79
2021/11/06 10:56:16;;;;;;;6.53;4.22;;;11.90;94.40;;;;;;5035164;28;20060;-79
2021/11/06 10:58:43;;;;;;;9.93;5.07;;;12.10;93.50;;;;;;5030043;28;20030;-80
2021/11/06 11:01:12;;;;;;;4.72;3.97;;;12.20;93.10;;;;;;5030755;28;20033;-80
2021/11/06 11:03:41;;;;;;;9.45;4.65;;;12.20;93.20;;;;;;5029557;28;20091;-79
2021/11/06 11:06:09;;;;;;;5.50;3.78;;;12.20;93.20;;;;;;5029376;28;20041;-80
2021/11/06 11:08:49;;;;;;;5.93;4.70;;;12.30;93.00;;;;;;5028795;28;20021;-79
2021/11/06 11:11:19;;;;;;;6.45;4.57;;;12.20;92.40;;;;;;5037366;28;20036;-79
2021/11/06 11:14:06;;;;;;;8.40;4.25;;;12.20;92.80;;;;;;5037340;28;20494;-80
2021/11/06 11:16:35;;;;;;;5.45;3.97;;;12.10;92.90;;;;;;5034062;28;20033;-78
2021/11/06 11:19:04;;;;;;;6.22;4.28;;;12.10;92.60;;;;;;5042557;28;20036;-79
2021/11/06 11:21:32;;;;;;;6.78;4.38;;;12.10;92.70;;;;;;5036112;28;20040;-79
2021/11/06 11:23:59;;;;;;;7.40;5.38;;;12.20;92.60;;;;;;5033161;28;20037;-76
2021/11/06 11:26:28;;;;;;;7.40;4.68;;;12.30;92.70;;;;;;5032353;28;20085;-78
2021/11/06 11:28:54;;;;;;;6.22;4.25;;;12.30;93.00;;;;;;5046815;28;20033;-78
2021/11/06 11:31:24;;;;;;;5.88;3.92;;;12.30;92.10;;;;;;5052966;28;20704;-78
2021/11/06 11:33:50;;;;;;;5.57;4.30;;;12.30;92.10;;;;;;5052577;28;20107;-78
2021/11/06 11:36:19;;;;;;;5.70;4.47;;;12.30;92.20;;;;;;5053287;28;20028;-78
2021/11/06 11:38:45;;;;;;;5.97;4.18;;;12.30;92.10;;;;;;5038751;28;20072;-77
2021/11/06 11:41:16;;;;;;;6.38;3.88;;;12.30;91.90;;;;;;5032997;28;20087;-78
2021/11/06 11:44:09;;;;;;;4.45;3.78;;;12.30;92.20;;;;;;5033021;28;20037;-78
2021/11/06 11:46:49;;;;;;;5.35;3.90;;;12.20;92.10;;;;;;5028490;28;20041;-79
2021/11/06 11:49:16;;;;;;;5.70;3.95;;;12.30;92.60;;;;;;5042452;28;20040;-79
2021/11/06 11:51:42;;;;;;;5.38;3.55;;;12.30;91.60;;;;;;5051849;28;20035;-79
2021/11/06 11:54:10;;;;;;;5.68;3.72;;;12.30;91.80;;;;;;5052965;28;20413;-78
2021/11/06 11:56:38;;;;;;;6.90;3.92;;;12.30;91.90;;;;;;5038542;28;20091;-79
2021/11/06 11:59:06;;;;;;;5.70;3.78;;;12.30;92.60;;;;;;5031149;28;20033;-78
2021/11/06 12:01:32;;;;;;;4.75;3.55;;;12.30;92.20;;;;;;5039018;28;20052;-78
2021/11/06 12:04:14;;;;;;;5.65;3.55;;;12.30;92.10;;;;;;5032223;28;20100;-80
2021/11/06 12:06:43;;;;;;;5.25;3.85;;;12.30;91.60;;;;;;5031491;28;20072;-79
2021/11/06 12:09:11;;;;;;;5.03;3.45;;;12.30;91.90;;;;;;5031983;28;20039;-78
2021/11/06 12:11:52;;;;;;;3.83;3.30;;;12.30;91.50;;;;;;5043303;28;20531;-79
2021/11/06 12:14:22;;;;;;;4.07;3.33;;;12.30;91.40;;;;;;5012879;28;20105;-77
2021/11/06 12:16:55;;;;;;;5.25;3.17;;;12.30;91.70;;;;;;5012615;28;20029;-77
2021/11/06 12:19:40;;;;;;;5.20;2.78;;;12.30;91.70;;;;;;5012478;28;20022;-77
2021/11/06 12:22:10;;;;;;;5.95;2.78;;;12.30;91.20;;;;;;5011874;28;20030;-78
2021/11/06 12:24:36;;;;;;;5.68;3.05;;;12.30;90.90;;;;;;5012705;28;20026;-78
2021/11/06 12:27:04;;;;;;;9.73;3.17;;;12.40;91.60;;;;;;5013737;28;20041;-77
2021/11/06 12:29:33;;;;;;;3.85;2.72;;;12.40;91.30;;;;;;5035033;28;20108;-77
2021/11/06 12:32:13;;;;;;;4.75;2.97;;;12.50;90.80;;;;;;5031589;28;20474;-78
2021/11/06 12:34:49;;;;;;;4.03;2.78;;;12.60;91.40;;;;;;5031974;28;20108;-78
2021/11/06 12:37:36;;;;;;;7.25;3.28;;;12.70;90.70;;;;;;5031952;28;20390;-78
2021/11/06 12:40:14;;;;;;;3.15;2.65;;;12.80;91.00;;;;;;5017324;28;20035;-78
2021/11/06 12:43:01;;;;;;;3.67;2.20;;;12.90;90.70;;;;;;5027815;28;20021;-78
2021/11/06 12:45:28;;;;;;;4.97;2.83;;;13.00;90.70;;;;;;5029625;28;20057;-77